createdAt,value
2023-02-28T00:00:30.388Z,3.00
2023-02-28T00:03:36.137Z,3.50
2023-02-28T00:06:39.039Z,2.93
2023-02-28T00:09:43.204Z,2.90
2023-02-28T00:12:46.066Z,3.40
2023-02-28T00:15:48.920Z,2.80
2023-02-28T00:18:52.450Z,3.40
2023-02-28T00:21:55.437Z,3.47
2023-02-28T00:24:59.649Z,2.90
2023-02-28T00:28:02.515Z,3.20
2023-02-28T00:31:06.186Z,2.90
2023-02-28T00:34:09.229Z,3.83
2023-02-28T00:37:13.959Z,2.87
2023-02-28T00:40:18.426Z,3.20
2023-02-28T00:43:21.268Z,3.63
2023-02-28T00:46:24.206Z,3.27
2023-02-28T00:49:27.655Z,4.00
2023-02-28T00:52:30.497Z,2.97
2023-02-28T00:55:34.675Z,3.63
2023-02-28T00:58:37.578Z,3.70
2023-02-28T01:01:40.762Z,2.97
2023-02-28T01:04:43.675Z,3.47
2023-02-28T01:07:46.551Z,4.13
2023-02-28T01:10:50.922Z,3.87
2023-02-28T01:13:53.954Z,3.90
2023-02-28T01:16:56.783Z,4.47
2023-02-28T01:19:59.614Z,3.73
2023-02-28T01:23:02.517Z,3.87
2023-02-28T01:26:12.289Z,3.83
2023-02-28T01:29:15.128Z,3.73
2023-02-28T01:32:18.024Z,4.57
2023-02-28T01:35:21.011Z,4.23
2023-02-28T01:38:23.833Z,4.17
2023-02-28T01:41:30.172Z,3.73
2023-02-28T01:45:00.021Z,3.73
2023-02-28T01:48:06.007Z,3.93
2023-02-28T01:51:14.934Z,4.50
2023-02-28T01:54:22.975Z,4.40
2023-02-28T01:57:34.276Z,4.73
2023-02-28T02:00:37.382Z,3.90
2023-02-28T02:03:40.338Z,3.70
2023-02-28T02:06:46.653Z,3.67
2023-02-28T02:09:49.649Z,3.87
2023-02-28T02:13:22.379Z,3.60
2023-02-28T02:16:37.270Z,4.50
2023-02-28T02:20:33.892Z,4.97
2023-02-28T02:24:17.927Z,4.23
2023-02-28T02:27:28.044Z,4.23
2023-02-28T02:31:06.137Z,4.17
2023-02-28T02:34:30.836Z,3.73
2023-02-28T02:37:40.628Z,4.20
2023-02-28T02:40:48.925Z,3.60
2023-02-28T02:43:55.294Z,4.43
2023-02-28T02:47:05.520Z,4.53
2023-02-28T02:50:14.634Z,5.30
2023-02-28T02:53:21.734Z,4.33
2023-02-28T02:56:29.211Z,4.87
2023-02-28T02:59:33.159Z,4.97
2023-02-28T03:02:38.353Z,4.67
2023-02-28T03:05:47.167Z,4.57
2023-02-28T03:08:50.086Z,4.23
2023-02-28T03:11:54.303Z,4.30
2023-02-28T03:15:08.236Z,4.40
2023-02-28T03:18:17.312Z,5.00
2023-02-28T03:21:30.226Z,4.50
2023-02-28T03:24:38.076Z,4.47
2023-02-28T03:27:46.392Z,5.03
2023-02-28T03:30:54.909Z,5.30
2023-02-28T03:34:03.642Z,5.03
2023-02-28T03:37:14.046Z,4.90
2023-02-28T03:40:21.615Z,5.87
2023-02-28T03:43:30.165Z,4.73
2023-02-28T03:46:36.671Z,4.63
2023-02-28T03:49:44.509Z,5.07
2023-02-28T03:52:52.365Z,5.77
2023-02-28T03:55:59.969Z,5.40
2023-02-28T03:59:07.863Z,6.27
2023-02-28T04:02:11.281Z,5.63
2023-02-28T04:05:14.120Z,5.97
2023-02-28T04:08:18.300Z,6.30
2023-02-28T04:11:25.024Z,6.13
2023-02-28T04:14:27.942Z,5.97
2023-02-28T04:17:30.780Z,6.37
2023-02-28T04:20:33.605Z,5.93
2023-02-28T04:23:37.884Z,5.50
2023-02-28T04:26:40.728Z,6.37
2023-02-28T04:29:45.442Z,6.40
2023-02-28T04:32:48.780Z,6.33
2023-02-28T04:36:00.617Z,6.77
2023-02-28T04:39:04.997Z,6.50
2023-02-28T04:42:07.900Z,6.50
2023-02-28T04:45:11.934Z,7.60
2023-02-28T04:48:14.787Z,6.23
2023-02-28T04:51:20.617Z,6.30
2023-02-28T04:54:25.485Z,6.80
2023-02-28T04:57:28.348Z,6.33
2023-02-28T05:00:31.241Z,6.73
2023-02-28T05:03:34.074Z,7.77
2023-02-28T05:06:36.919Z,7.13
2023-02-28T05:09:41.424Z,8.37
2023-02-28T05:12:44.275Z,6.80
2023-02-28T05:15:47.148Z,7.43
2023-02-28T05:18:50.251Z,8.13
2023-02-28T05:21:54.317Z,7.93
2023-02-28T05:24:58.510Z,7.33
2023-02-28T05:28:01.362Z,7.53
2023-02-28T05:31:04.192Z,8.17
2023-02-28T05:34:07.464Z,8.13
2023-02-28T05:37:14.246Z,8.17
2023-02-28T05:40:20.482Z,8.67
2023-02-28T05:43:23.310Z,8.33
2023-02-28T05:46:26.398Z,8.87
2023-02-28T05:49:29.310Z,9.53
2023-02-28T05:52:32.170Z,8.43
2023-02-28T05:55:38.261Z,8.83
2023-02-28T05:58:41.561Z,9.07
2023-02-28T06:01:49.111Z,9.43
2023-02-28T06:04:52.161Z,9.63
2023-02-28T06:07:55.053Z,9.00
2023-02-28T06:10:59.235Z,9.53
2023-02-28T06:14:03.322Z,9.73
2023-02-28T06:17:06.209Z,9.47
2023-02-28T06:20:10.356Z,9.43
2023-02-28T06:23:13.178Z,10.13
2023-02-28T06:26:17.630Z,9.43
2023-02-28T06:29:20.872Z,9.73
2023-02-28T06:32:23.795Z,9.97
2023-02-28T06:35:27.870Z,9.43
2023-02-28T06:38:30.838Z,10.00
2023-02-28T06:41:53.536Z,12.07
2023-02-28T06:44:57.648Z,11.13
2023-02-28T06:48:01.209Z,9.93
2023-02-28T06:51:05.591Z,11.30
2023-02-28T06:54:10.610Z,10.67
2023-02-28T06:57:15.054Z,10.43
2023-02-28T07:00:18.506Z,10.20
2023-02-28T07:03:21.674Z,9.97
2023-02-28T07:06:25.275Z,11.17
2023-02-28T07:09:30.888Z,10.90
2023-02-28T07:12:35.136Z,11.43
2023-02-28T07:15:41.150Z,11.53
2023-02-28T07:18:45.531Z,11.40
2023-02-28T07:21:48.369Z,12.77
2023-02-28T07:24:51.220Z,13.20
2023-02-28T07:27:55.799Z,12.43
2023-02-28T07:30:58.708Z,12.53
2023-02-28T07:34:01.560Z,13.00
2023-02-28T07:37:06.011Z,13.00
2023-02-28T07:40:12.241Z,13.80
2023-02-28T07:43:16.444Z,13.13
2023-02-28T07:46:21.277Z,13.87
2023-02-28T07:49:24.312Z,13.07
2023-02-28T07:52:27.685Z,13.20
2023-02-28T07:55:30.532Z,13.87
2023-02-28T07:58:34.750Z,14.23
2023-02-28T08:01:37.647Z,13.70
2023-02-28T08:04:40.568Z,14.03
2023-02-28T08:07:43.579Z,13.97
2023-02-28T08:10:46.479Z,13.77
2023-02-28T08:13:50.766Z,15.00
2023-02-28T08:16:53.622Z,14.03
2023-02-28T08:19:56.520Z,14.23
2023-02-28T08:22:59.373Z,13.60
2023-02-28T08:26:02.246Z,13.57
2023-02-28T08:29:06.528Z,13.93
2023-02-28T08:32:23.576Z,13.23
2023-02-28T08:35:31.685Z,14.80
2023-02-28T08:38:34.553Z,14.57
2023-02-28T08:41:37.697Z,14.20
2023-02-28T08:44:42.488Z,13.90
2023-02-28T08:47:45.376Z,13.17
2023-02-28T08:51:06.708Z,14.20
2023-02-28T08:54:13.325Z,14.77
2023-02-28T08:57:16.202Z,15.00
2023-02-28T09:00:21.719Z,13.87
2023-02-28T09:03:25.394Z,13.77
2023-02-28T09:06:29.867Z,15.03
2023-02-28T09:09:32.825Z,13.37
2023-02-28T09:12:37.285Z,13.63
2023-02-28T09:15:41.654Z,14.53
2023-02-28T09:18:45.196Z,14.70
2023-02-28T09:21:48.147Z,13.90
2023-02-28T09:24:50.989Z,14.63
2023-02-28T09:27:53.929Z,14.13
2023-02-28T09:30:59.891Z,12.90
2023-02-28T09:34:03.696Z,14.60
2023-02-28T09:37:07.039Z,14.00
2023-02-28T09:40:12.275Z,13.63
2023-02-28T09:43:18.567Z,13.70
2023-02-28T09:46:34.493Z,13.50
2023-02-28T09:49:42.914Z,14.00
2023-02-28T09:52:49.189Z,14.87
2023-02-28T09:55:56.243Z,14.47
2023-02-28T09:59:03.755Z,14.37
2023-02-28T10:02:21.628Z,13.10
2023-02-28T10:05:28.147Z,13.13
2023-02-28T10:08:35.142Z,12.80
2023-02-28T10:11:41.519Z,12.43
2023-02-28T10:14:48.756Z,12.90
2023-02-28T10:18:08.497Z,13.47
2023-02-28T10:21:20.944Z,14.00
2023-02-28T10:24:31.062Z,12.43
2023-02-28T10:27:34.906Z,14.07
2023-02-28T10:30:41.380Z,12.87
2023-02-28T10:33:46.397Z,11.83
2023-02-28T10:36:51.407Z,12.67
2023-02-28T10:39:54.707Z,13.37
2023-02-28T10:42:59.039Z,12.73
2023-02-28T10:46:05.634Z,12.10
2023-02-28T10:49:17.300Z,12.00
2023-02-28T10:52:38.879Z,13.13
2023-02-28T10:55:41.868Z,12.83
2023-02-28T10:58:51.323Z,13.43
2023-02-28T11:01:54.563Z,12.83
2023-02-28T11:04:59.365Z,14.07
2023-02-28T11:08:08.824Z,12.90
2023-02-28T11:11:11.696Z,13.37
2023-02-28T11:14:22.559Z,11.87
2023-02-28T11:17:27.817Z,11.80
2023-02-28T11:20:34.677Z,12.30
2023-02-28T11:23:42.301Z,12.10
2023-02-28T11:26:47.404Z,11.57
2023-02-28T11:29:50.257Z,12.57
2023-02-28T11:32:53.344Z,11.40
2023-02-28T11:36:01.317Z,11.87
2023-02-28T11:39:12.976Z,11.63
2023-02-28T11:42:42.701Z,11.97
2023-02-28T11:45:56.546Z,12.23
2023-02-28T11:49:07.280Z,11.63
2023-02-28T11:52:23.042Z,12.60
2023-02-28T11:55:29.552Z,12.80
2023-02-28T11:58:42.898Z,12.70
2023-02-28T12:02:05.177Z,11.87
2023-02-28T12:05:27.593Z,12.70
2023-02-28T12:08:46.234Z,11.43
2023-02-28T12:11:54.794Z,11.97
2023-02-28T12:15:33.673Z,11.57
2023-02-28T12:18:51.626Z,12.33
2023-02-28T12:22:18.144Z,12.60
2023-02-28T12:25:45.881Z,12.20
2023-02-28T12:28:53.021Z,11.43
2023-02-28T12:32:05.938Z,11.33
2023-02-28T12:35:15.211Z,11.33
2023-02-28T12:38:21.432Z,11.27
2023-02-28T12:41:32.004Z,10.73
2023-02-28T12:44:41.368Z,10.13
2023-02-28T12:47:46.424Z,10.27
2023-02-28T12:50:50.804Z,11.37
2023-02-28T12:54:04.772Z,10.23
2023-02-28T12:57:15.538Z,10.53
2023-02-28T13:00:20.972Z,10.87
2023-02-28T13:03:38.524Z,10.43
2023-02-28T13:06:55.803Z,11.43
2023-02-28T13:10:00.749Z,9.70
2023-02-28T13:13:05.903Z,9.17
2023-02-28T13:16:10.935Z,9.50
2023-02-28T13:19:14.523Z,8.70
2023-02-28T13:22:38.710Z,9.10
2023-02-28T13:25:56.487Z,9.67
2023-02-28T13:29:02.986Z,9.40
2023-02-28T13:32:37.569Z,9.93
2023-02-28T13:35:47.206Z,8.87
2023-02-28T13:38:54.331Z,9.80
2023-02-28T13:41:57.201Z,8.87
2023-02-28T13:45:30.992Z,9.30
2023-02-28T13:48:33.929Z,9.63
2023-02-28T13:51:47.832Z,9.93
2023-02-28T13:55:17.193Z,10.57
2023-02-28T13:58:37.676Z,10.87
2023-02-28T14:01:54.821Z,9.57
2023-02-28T14:05:04.041Z,9.63
2023-02-28T14:08:16.227Z,9.50
2023-02-28T14:11:32.446Z,9.53
2023-02-28T14:14:58.297Z,9.80
2023-02-28T14:18:06.556Z,10.03
2023-02-28T14:21:18.405Z,9.73
2023-02-28T14:24:52.252Z,9.00
2023-02-28T14:28:04.536Z,8.77
2023-02-28T14:31:12.563Z,8.93
2023-02-28T14:34:28.198Z,9.70
2023-02-28T14:37:35.119Z,9.83
2023-02-28T14:40:40.323Z,8.67
2023-02-28T14:43:52.005Z,9.40
2023-02-28T14:46:57.393Z,9.97
2023-02-28T14:50:04.668Z,9.37
2023-02-28T14:53:17.499Z,10.00
2023-02-28T14:56:25.313Z,9.53
2023-02-28T14:59:31.755Z,9.10
2023-02-28T15:02:37.181Z,9.17
2023-02-28T15:05:41.384Z,9.23
2023-02-28T15:08:44.267Z,9.60
2023-02-28T15:11:50.644Z,8.07
2023-02-28T15:14:53.527Z,8.97
2023-02-28T15:17:59.561Z,8.70
2023-02-28T15:21:08.215Z,9.33
2023-02-28T15:24:24.514Z,9.63
2023-02-28T15:27:29.401Z,9.47
2023-02-28T15:30:34.206Z,8.57
2023-02-28T15:33:37.123Z,8.97
2023-02-28T15:36:41.349Z,8.93
2023-02-28T15:39:45.993Z,9.87
2023-02-28T15:43:01.870Z,9.90
2023-02-28T15:46:07.306Z,9.43
2023-02-28T15:49:19.532Z,9.60
2023-02-28T15:52:28.282Z,10.23
2023-02-28T15:55:32.362Z,9.87
2023-02-28T15:58:36.966Z,9.97
2023-02-28T16:01:40.760Z,9.00
2023-02-28T16:05:28.856Z,9.77
2023-02-28T16:08:33.061Z,9.73
2023-02-28T16:11:39.651Z,9.47
2023-02-28T16:14:43.554Z,11.93
2023-02-28T16:17:47.590Z,11.57
2023-02-28T16:20:50.450Z,10.60
2023-02-28T16:23:54.656Z,10.60
2023-02-28T16:26:59.059Z,10.87
2023-02-28T16:30:02.856Z,10.63
2023-02-28T16:33:05.713Z,10.63
2023-02-28T16:36:11.528Z,10.13
2023-02-28T16:39:15.784Z,9.97
2023-02-28T16:42:25.852Z,11.47
2023-02-28T16:45:30.707Z,11.13
2023-02-28T16:48:33.619Z,12.53
2023-02-28T16:51:36.899Z,12.73
2023-02-28T16:54:42.056Z,12.97
2023-02-28T16:57:46.561Z,12.03
2023-02-28T17:00:49.962Z,12.07
2023-02-28T17:03:52.875Z,12.73
2023-02-28T17:06:55.856Z,12.47
2023-02-28T17:10:01.549Z,13.37
2023-02-28T17:13:14.505Z,13.00
2023-02-28T17:16:24.501Z,13.97
2023-02-28T17:19:27.389Z,12.77
2023-02-28T17:22:30.293Z,13.37
2023-02-28T17:25:34.554Z,13.20
2023-02-28T17:28:37.482Z,13.47
2023-02-28T17:31:43.259Z,12.10
2023-02-28T17:34:46.984Z,12.93
2023-02-28T17:37:51.050Z,12.90
2023-02-28T17:40:58.128Z,16.50
2023-02-28T17:44:01.041Z,15.83
2023-02-28T17:47:03.958Z,15.10
2023-02-28T17:50:07.601Z,15.50
2023-02-28T17:53:10.519Z,14.43
2023-02-28T17:56:22.470Z,13.87
2023-02-28T17:59:25.362Z,13.67
2023-02-28T18:02:28.533Z,13.80
2023-02-28T18:05:31.970Z,12.53
2023-02-28T18:08:37.018Z,15.37
2023-02-28T18:11:44.780Z,14.70
2023-02-28T18:14:48.733Z,14.43
2023-02-28T18:17:51.973Z,13.63
2023-02-28T18:20:54.869Z,14.23
2023-02-28T18:23:58.864Z,13.43
2023-02-28T18:27:03.102Z,12.90
2023-02-28T18:30:06.795Z,12.33
2023-02-28T18:33:09.748Z,13.20
2023-02-28T18:36:12.617Z,13.37
2023-02-28T18:39:16.344Z,13.90
2023-02-28T18:42:20.557Z,12.97
2023-02-28T18:45:23.419Z,13.30
2023-02-28T18:48:26.327Z,12.67
2023-02-28T18:51:30.524Z,12.00
2023-02-28T18:54:33.455Z,14.83
2023-02-28T18:57:37.693Z,13.97
2023-02-28T19:00:40.570Z,13.80
2023-02-28T19:03:43.470Z,13.90
2023-02-28T19:06:46.411Z,13.57
2023-02-28T19:09:49.272Z,13.97
2023-02-28T19:12:53.474Z,15.10
2023-02-28T19:16:03.548Z,13.57
2023-02-28T19:19:06.675Z,13.47
2023-02-28T19:22:09.563Z,15.43
2023-02-28T19:25:12.647Z,14.57
2023-02-28T19:28:16.904Z,15.57
2023-02-28T19:31:21.546Z,15.80
2023-02-28T19:34:24.444Z,13.43
2023-02-28T19:37:27.324Z,14.60
2023-02-28T19:40:30.196Z,14.23
2023-02-28T19:43:34.632Z,14.77
2023-02-28T19:46:37.525Z,13.53
2023-02-28T19:49:40.438Z,14.67
2023-02-28T19:52:43.435Z,14.00
2023-02-28T19:55:48.652Z,14.00
2023-02-28T19:58:52.974Z,15.10
2023-02-28T20:01:56.374Z,14.63
2023-02-28T20:05:01.302Z,14.87
2023-02-28T20:08:04.461Z,15.37
2023-02-28T20:11:09.028Z,15.20
2023-02-28T20:14:14.472Z,16.20
2023-02-28T20:17:17.364Z,15.53
2023-02-28T20:20:20.458Z,15.77
2023-02-28T20:23:25.741Z,15.03
2023-02-28T20:26:29.035Z,15.73
2023-02-28T20:29:34.851Z,16.23
2023-02-28T20:32:39.507Z,15.03
2023-02-28T20:35:42.551Z,14.73
2023-02-28T20:38:45.469Z,15.60
2023-02-28T20:41:48.317Z,14.50
2023-02-28T20:44:52.546Z,15.07
2023-02-28T20:47:55.459Z,14.40
2023-02-28T20:51:00.016Z,15.37
2023-02-28T20:54:05.355Z,16.17
2023-02-28T20:57:08.448Z,16.20
2023-02-28T21:00:16.283Z,15.17
2023-02-28T21:03:19.186Z,15.80
2023-02-28T21:06:24.313Z,14.90
2023-02-28T21:09:27.640Z,14.27
2023-02-28T21:12:30.561Z,15.73
2023-02-28T21:15:38.346Z,16.27
2023-02-28T21:18:41.700Z,14.50
2023-02-28T21:21:46.697Z,14.30
2023-02-28T21:24:49.592Z,13.83
2023-02-28T21:27:55.569Z,14.67
2023-02-28T21:31:04.279Z,16.50
2023-02-28T21:34:10.398Z,16.47
2023-02-28T21:37:13.337Z,15.90
2023-02-28T21:40:16.480Z,14.23
2023-02-28T21:43:19.352Z,15.07
2023-02-28T21:46:25.531Z,14.67
2023-02-28T21:49:28.452Z,14.83
2023-02-28T21:52:31.310Z,14.73
2023-02-28T21:55:35.975Z,14.17
2023-02-28T21:58:38.864Z,15.00
2023-02-28T22:01:45.305Z,14.97
2023-02-28T22:04:48.340Z,14.50
2023-02-28T22:07:51.289Z,15.03
2023-02-28T22:10:54.415Z,15.07
2023-02-28T22:13:59.000Z,14.87
2023-02-28T22:17:03.332Z,14.70
2023-02-28T22:20:07.268Z,14.97
2023-02-28T22:23:10.117Z,14.93
2023-02-28T22:26:15.047Z,15.10
2023-02-28T22:29:18.270Z,13.70
2023-02-28T22:32:22.540Z,15.27
2023-02-28T22:35:25.480Z,14.93
2023-02-28T22:38:28.337Z,13.90
2023-02-28T22:41:31.838Z,14.77
2023-02-28T22:44:34.702Z,14.73
2023-02-28T22:47:39.044Z,14.47
2023-02-28T22:50:41.949Z,15.03
2023-02-28T22:53:46.776Z,15.47
2023-02-28T22:56:49.665Z,13.77
2023-02-28T22:59:52.520Z,14.40
2023-02-28T23:02:56.833Z,14.87
2023-02-28T23:05:59.797Z,15.67
2023-02-28T23:09:06.417Z,15.53
2023-02-28T23:12:09.338Z,14.20
2023-02-28T23:15:12.976Z,15.17
2023-02-28T23:18:17.270Z,14.27
2023-02-28T23:21:20.188Z,15.20
2023-02-28T23:24:24.572Z,14.23
2023-02-28T23:27:27.697Z,15.93
2023-02-28T23:30:30.704Z,15.33
2023-02-28T23:33:35.132Z,16.27
2023-02-28T23:36:39.049Z,14.00
2023-02-28T23:39:41.985Z,15.07
2023-02-28T23:42:45.283Z,14.23
2023-02-28T23:45:56.272Z,15.50
2023-02-28T23:49:01.128Z,16.17
2023-02-28T23:52:04.039Z,14.77
2023-02-28T23:55:08.010Z,16.23
2023-02-28T23:58:10.876Z,14.50
